sensor_id;sensor_type;location;lat;lon;timestamp;temperature;humidity
11925;DHT22;6022;48.768;18.608;2023-07-09T00:02:26;18.40;99.90
11925;DHT22;6022;48.768;18.608;2023-07-09T00:04:55;18.60;99.90
11925;DHT22;6022;48.768;18.608;2023-07-09T00:07:28;18.30;99.90
11925;DHT22;6022;48.768;18.608;2023-07-09T00:09:58;18.20;99.90
11925;DHT22;6022;48.768;18.608;2023-07-09T00:12:26;18.40;99.90
11925;DHT22;6022;48.768;18.608;2023-07-09T00:14:53;18.40;99.90
11925;DHT22;6022;48.768;18.608;2023-07-09T00:17:26;18.40;99.90
11925;DHT22;6022;48.768;18.608;2023-07-09T00:19:54;18.30;99.90
11925;DHT22;6022;48.768;18.608;2023-07-09T00:22:21;18.50;99.90
11925;DHT22;6022;48.768;18.608;2023-07-09T00:24:51;18.00;99.90
11925;DHT22;6022;48.768;18.608;2023-07-09T00:27:27;18.30;99.90
11925;DHT22;6022;48.768;18.608;2023-07-09T00:29:57;18.20;99.90
11925;DHT22;6022;48.768;18.608;2023-07-09T00:32:25;18.20;99.90
11925;DHT22;6022;48.768;18.608;2023-07-09T00:34:52;16.50;99.90
11925;DHT22;6022;48.768;18.608;2023-07-09T00:37:24;17.80;99.90
11925;DHT22;6022;48.768;18.608;2023-07-09T00:39:55;18.10;99.90
11925;DHT22;6022;48.768;18.608;2023-07-09T00:42:23;17.80;99.90
11925;DHT22;6022;48.768;18.608;2023-07-09T00:44:52;18.10;99.90
11925;DHT22;6022;48.768;18.608;2023-07-09T00:48:17;17.90;99.90
11925;DHT22;6022;48.768;18.608;2023-07-09T00:50:33;18.10;99.90
11925;DHT22;6022;48.768;18.608;2023-07-09T00:53:20;18.00;99.90
11925;DHT22;6022;48.768;18.608;2023-07-09T00:55:59;18.00;99.90
11925;DHT22;6022;48.768;18.608;2023-07-09T00:58:35;18.00;99.90
11925;DHT22;6022;48.768;18.608;2023-07-09T01:01:10;18.00;99.90
11925;DHT22;6022;48.768;18.608;2023-07-09T01:03:45;17.90;99.90
11925;DHT22;6022;48.768;18.608;2023-07-09T01:06:20;17.70;99.90
11925;DHT22;6022;48.768;18.608;2023-07-09T01:08:56;17.70;99.90
11925;DHT22;6022;48.768;18.608;2023-07-09T01:11:24;17.70;99.90
11925;DHT22;6022;48.768;18.608;2023-07-09T01:13:55;17.80;99.90
11925;DHT22;6022;48.768;18.608;2023-07-09T01:16:35;17.70;99.90
11925;DHT22;6022;48.768;18.608;2023-07-09T01:19:07;17.70;99.90
11925;DHT22;6022;48.768;18.608;2023-07-09T01:21:34;17.60;99.90
11925;DHT22;6022;48.768;18.608;2023-07-09T01:24:45;17.40;99.90
11925;DHT22;6022;48.768;18.608;2023-07-09T01:27:23;17.40;99.90
11925;DHT22;6022;48.768;18.608;2023-07-09T01:29:55;17.50;99.90
11925;DHT22;6022;48.768;18.608;2023-07-09T01:32:23;17.40;99.90
11925;DHT22;6022;48.768;18.608;2023-07-09T01:34:55;17.30;99.90
11925;DHT22;6022;48.768;18.608;2023-07-09T01:37:27;17.20;99.90
11925;DHT22;6022;48.768;18.608;2023-07-09T01:39:55;17.20;99.90
11925;DHT22;6022;48.768;18.608;2023-07-09T01:42:24;17.50;99.90
11925;DHT22;6022;48.768;18.608;2023-07-09T01:44:55;17.50;99.90
11925;DHT22;6022;48.768;18.608;2023-07-09T01:47:23;17.60;99.90
11925;DHT22;6022;48.768;18.608;2023-07-09T01:49:51;17.40;99.90
11925;DHT22;6022;48.768;18.608;2023-07-09T01:52:27;17.20;99.90
11925;DHT22;6022;48.768;18.608;2023-07-09T01:54:57;17.10;99.90
11925;DHT22;6022;48.768;18.608;2023-07-09T01:57:26;17.40;99.90
11925;DHT22;6022;48.768;18.608;2023-07-09T02:00:03;16.70;99.90
11925;DHT22;6022;48.768;18.608;2023-07-09T02:02:38;17.00;99.90
11925;DHT22;6022;48.768;18.608;2023-07-09T02:05:15;17.30;99.90
11925;DHT22;6022;48.768;18.608;2023-07-09T02:07:44;17.00;99.90
11925;DHT22;6022;48.768;18.608;2023-07-09T02:10:12;17.00;99.90
11925;DHT22;6022;48.768;18.608;2023-07-09T02:12:41;17.00;99.90
11925;DHT22;6022;48.768;18.608;2023-07-09T02:15:08;16.90;99.90
11925;DHT22;6022;48.768;18.608;2023-07-09T02:17:36;16.80;99.90
11925;DHT22;6022;48.768;18.608;2023-07-09T02:20:04;16.90;99.90
11925;DHT22;6022;48.768;18.608;2023-07-09T02:22:34;16.80;99.90
11925;DHT22;6022;48.768;18.608;2023-07-09T02:25:03;17.00;99.90
11925;DHT22;6022;48.768;18.608;2023-07-09T02:27:31;16.80;99.90
11925;DHT22;6022;48.768;18.608;2023-07-09T02:29:59;16.80;99.90
11925;DHT22;6022;48.768;18.608;2023-07-09T02:32:27;16.90;99.90
11925;DHT22;6022;48.768;18.608;2023-07-09T02:34:55;16.80;99.90
11925;DHT22;6022;48.768;18.608;2023-07-09T02:37:24;16.90;99.90
11925;DHT22;6022;48.768;18.608;2023-07-09T02:39:53;16.60;99.90
11925;DHT22;6022;48.768;18.608;2023-07-09T02:42:22;16.60;99.90
11925;DHT22;6022;48.768;18.608;2023-07-09T02:44:50;16.30;99.90
11925;DHT22;6022;48.768;18.608;2023-07-09T02:47:18;16.30;99.90
11925;DHT22;6022;48.768;18.608;2023-07-09T02:49:46;16.50;99.90
11925;DHT22;6022;48.768;18.608;2023-07-09T02:52:14;16.40;99.90
11925;DHT22;6022;48.768;18.608;2023-07-09T02:54:41;16.50;99.90
11925;DHT22;6022;48.768;18.608;2023-07-09T02:57:09;16.40;99.90
11925;DHT22;6022;48.768;18.608;2023-07-09T02:59:36;16.30;99.90
11925;DHT22;6022;48.768;18.608;2023-07-09T03:02:04;16.20;99.90
11925;DHT22;6022;48.768;18.608;2023-07-09T03:04:31;16.30;99.90
11925;DHT22;6022;48.768;18.608;2023-07-09T03:06:59;16.50;99.90
11925;DHT22;6022;48.768;18.608;2023-07-09T03:09:29;16.30;99.90
11925;DHT22;6022;48.768;18.608;2023-07-09T03:11:56;16.30;99.90
11925;DHT22;6022;48.768;18.608;2023-07-09T03:14:24;16.40;99.90
11925;DHT22;6022;48.768;18.608;2023-07-09T03:16:51;16.40;99.90
11925;DHT22;6022;48.768;18.608;2023-07-09T03:19:18;16.40;99.90
11925;DHT22;6022;48.768;18.608;2023-07-09T03:21:45;16.40;99.90
11925;DHT22;6022;48.768;18.608;2023-07-09T03:24:12;16.40;99.90
11925;DHT22;6022;48.768;18.608;2023-07-09T03:26:41;16.40;99.90
11925;DHT22;6022;48.768;18.608;2023-07-09T03:29:08;16.30;99.90
11925;DHT22;6022;48.768;18.608;2023-07-09T03:31:36;16.40;99.90
11925;DHT22;6022;48.768;18.608;2023-07-09T03:34:03;16.30;99.90
11925;DHT22;6022;48.768;18.608;2023-07-09T03:36:31;16.40;99.90
11925;DHT22;6022;48.768;18.608;2023-07-09T03:38:58;16.40;99.90
11925;DHT22;6022;48.768;18.608;2023-07-09T03:41:25;16.40;99.90
11925;DHT22;6022;48.768;18.608;2023-07-09T03:43:52;16.30;99.90
11925;DHT22;6022;48.768;18.608;2023-07-09T03:46:20;16.40;99.90
11925;DHT22;6022;48.768;18.608;2023-07-09T03:48:47;16.50;99.90
11925;DHT22;6022;48.768;18.608;2023-07-09T03:51:17;16.80;99.90
11925;DHT22;6022;48.768;18.608;2023-07-09T03:53:44;16.70;99.90
11925;DHT22;6022;48.768;18.608;2023-07-09T03:56:11;17.00;99.90
11925;DHT22;6022;48.768;18.608;2023-07-09T03:58:39;17.60;99.90
11925;DHT22;6022;48.768;18.608;2023-07-09T04:01:06;17.70;99.90
11925;DHT22;6022;48.768;18.608;2023-07-09T04:03:33;17.80;99.90
11925;DHT22;6022;48.768;18.608;2023-07-09T04:06:01;17.90;99.90
11925;DHT22;6022;48.768;18.608;2023-07-09T04:08:28;17.50;99.90
11925;DHT22;6022;48.768;18.608;2023-07-09T04:10:59;17.70;99.90
11925;DHT22;6022;48.768;18.608;2023-07-09T04:13:28;18.00;99.90
11925;DHT22;6022;48.768;18.608;2023-07-09T04:15:56;17.60;99.90
11925;DHT22;6022;48.768;18.608;2023-07-09T04:18:24;17.60;99.90
11925;DHT22;6022;48.768;18.608;2023-07-09T04:20:52;17.80;99.90
11925;DHT22;6022;48.768;18.608;2023-07-09T04:23:19;17.40;99.90
11925;DHT22;6022;48.768;18.608;2023-07-09T04:25:47;17.80;99.90
11925;DHT22;6022;48.768;18.608;2023-07-09T04:28:15;17.50;99.90
11925;DHT22;6022;48.768;18.608;2023-07-09T04:30:49;17.60;99.90
11925;DHT22;6022;48.768;18.608;2023-07-09T04:33:20;17.50;99.90
11925;DHT22;6022;48.768;18.608;2023-07-09T04:35:49;17.50;99.90
11925;DHT22;6022;48.768;18.608;2023-07-09T04:38:18;17.60;99.90
11925;DHT22;6022;48.768;18.608;2023-07-09T04:40:46;18.10;99.90
11925;DHT22;6022;48.768;18.608;2023-07-09T04:43:14;18.00;99.90
11925;DHT22;6022;48.768;18.608;2023-07-09T04:45:41;18.60;99.90
11925;DHT22;6022;48.768;18.608;2023-07-09T04:48:08;19.10;99.90
11925;DHT22;6022;48.768;18.608;2023-07-09T04:50:35;20.70;99.90
11925;DHT22;6022;48.768;18.608;2023-07-09T04:53:03;20.80;99.90
11925;DHT22;6022;48.768;18.608;2023-07-09T04:55:30;23.30;99.90
11925;DHT22;6022;48.768;18.608;2023-07-09T04:57:57;24.20;99.90
11925;DHT22;6022;48.768;18.608;2023-07-09T05:00:25;24.60;99.90
11925;DHT22;6022;48.768;18.608;2023-07-09T05:02:52;25.00;99.90
11925;DHT22;6022;48.768;18.608;2023-07-09T05:05:20;25.60;99.90
11925;DHT22;6022;48.768;18.608;2023-07-09T05:07:48;26.60;99.90
11925;DHT22;6022;48.768;18.608;2023-07-09T05:10:15;27.10;99.90
11925;DHT22;6022;48.768;18.608;2023-07-09T05:12:54;26.80;99.90
11925;DHT22;6022;48.768;18.608;2023-07-09T05:15:23;27.10;99.90
11925;DHT22;6022;48.768;18.608;2023-07-09T05:17:55;27.20;99.90
11925;DHT22;6022;48.768;18.608;2023-07-09T05:20:30;27.70;98.20
11925;DHT22;6022;48.768;18.608;2023-07-09T05:23:03;28.10;94.60
11925;DHT22;6022;48.768;18.608;2023-07-09T05:29:46;27.50;95.40
11925;DHT22;6022;48.768;18.608;2023-07-09T05:32:23;29.70;90.30
11925;DHT22;6022;48.768;18.608;2023-07-09T05:34:56;29.80;89.60
11925;DHT22;6022;48.768;18.608;2023-07-09T05:37:26;30.30;81.00
11925;DHT22;6022;48.768;18.608;2023-07-09T05:40:06;30.20;81.10
11925;DHT22;6022;48.768;18.608;2023-07-09T05:42:49;30.20;79.00
11925;DHT22;6022;48.768;18.608;2023-07-09T05:45:16;28.70;82.00
11925;DHT22;6022;48.768;18.608;2023-07-09T05:47:44;28.20;83.30
11925;DHT22;6022;48.768;18.608;2023-07-09T05:50:11;28.80;85.00
11925;DHT22;6022;48.768;18.608;2023-07-09T05:52:39;29.50;81.00
11925;DHT22;6022;48.768;18.608;2023-07-09T05:55:07;29.60;81.30
11925;DHT22;6022;48.768;18.608;2023-07-09T05:57:38;30.30;76.80
11925;DHT22;6022;48.768;18.608;2023-07-09T06:00:08;30.20;77.50
11925;DHT22;6022;48.768;18.608;2023-07-09T06:02:39;31.70;71.40
11925;DHT22;6022;48.768;18.608;2023-07-09T06:05:09;30.90;72.80
11925;DHT22;6022;48.768;18.608;2023-07-09T06:07:41;31.30;71.30
11925;DHT22;6022;48.768;18.608;2023-07-09T06:10:10;31.50;71.50
11925;DHT22;6022;48.768;18.608;2023-07-09T06:12:41;30.70;70.10
11925;DHT22;6022;48.768;18.608;2023-07-09T06:15:11;31.30;70.10
11925;DHT22;6022;48.768;18.608;2023-07-09T06:17:39;31.70;67.80
11925;DHT22;6022;48.768;18.608;2023-07-09T06:20:07;32.70;64.60
11925;DHT22;6022;48.768;18.608;2023-07-09T06:22:37;33.20;62.90
11925;DHT22;6022;48.768;18.608;2023-07-09T06:25:18;33.20;62.70
11925;DHT22;6022;48.768;18.608;2023-07-09T06:27:48;33.20;63.30
11925;DHT22;6022;48.768;18.608;2023-07-09T06:30:16;33.20;59.60
11925;DHT22;6022;48.768;18.608;2023-07-09T06:32:46;33.50;58.00
11925;DHT22;6022;48.768;18.608;2023-07-09T06:35:13;32.50;55.80
11925;DHT22;6022;48.768;18.608;2023-07-09T06:37:41;32.40;56.40
11925;DHT22;6022;48.768;18.608;2023-07-09T06:40:08;32.60;58.20
11925;DHT22;6022;48.768;18.608;2023-07-09T06:42:36;32.80;58.80
11925;DHT22;6022;48.768;18.608;2023-07-09T06:45:04;33.90;57.00
11925;DHT22;6022;48.768;18.608;2023-07-09T06:47:33;34.00;55.90
11925;DHT22;6022;48.768;18.608;2023-07-09T06:50:01;34.10;52.90
11925;DHT22;6022;48.768;18.608;2023-07-09T06:52:28;33.80;53.00
11925;DHT22;6022;48.768;18.608;2023-07-09T06:54:57;33.60;53.60
11925;DHT22;6022;48.768;18.608;2023-07-09T06:57:27;34.20;50.60
11925;DHT22;6022;48.768;18.608;2023-07-09T06:59:54;35.00;50.70
11925;DHT22;6022;48.768;18.608;2023-07-09T07:02:22;35.00;51.00
11925;DHT22;6022;48.768;18.608;2023-07-09T07:04:49;34.60;51.10
11925;DHT22;6022;48.768;18.608;2023-07-09T07:07:24;34.20;50.70
11925;DHT22;6022;48.768;18.608;2023-07-09T07:09:54;35.20;46.70
11925;DHT22;6022;48.768;18.608;2023-07-09T07:12:26;35.10;46.90
11925;DHT22;6022;48.768;18.608;2023-07-09T07:15:01;35.50;46.40
11925;DHT22;6022;48.768;18.608;2023-07-09T07:17:28;35.70;47.10
11925;DHT22;6022;48.768;18.608;2023-07-09T07:19:59;36.60;45.10
11925;DHT22;6022;48.768;18.608;2023-07-09T07:22:32;35.90;44.20
11925;DHT22;6022;48.768;18.608;2023-07-09T07:24:59;35.80;44.40
11925;DHT22;6022;48.768;18.608;2023-07-09T07:27:27;36.40;44.30
11925;DHT22;6022;48.768;18.608;2023-07-09T07:29:54;37.20;40.50
11925;DHT22;6022;48.768;18.608;2023-07-09T07:32:24;36.60;39.30
11925;DHT22;6022;48.768;18.608;2023-07-09T07:34:57;36.10;40.60
11925;DHT22;6022;48.768;18.608;2023-07-09T07:37:25;36.70;39.60
11925;DHT22;6022;48.768;18.608;2023-07-09T07:40:10;37.40;39.50
11925;DHT22;6022;48.768;18.608;2023-07-09T07:42:39;37.40;37.90
11925;DHT22;6022;48.768;18.608;2023-07-09T07:45:06;37.40;38.70
11925;DHT22;6022;48.768;18.608;2023-07-09T07:47:36;38.10;36.00
11925;DHT22;6022;48.768;18.608;2023-07-09T07:50:05;38.20;36.10
11925;DHT22;6022;48.768;18.608;2023-07-09T07:52:34;38.10;36.10
11925;DHT22;6022;48.768;18.608;2023-07-09T07:55:05;38.50;36.00
11925;DHT22;6022;48.768;18.608;2023-07-09T07:57:33;38.00;34.80
11925;DHT22;6022;48.768;18.608;2023-07-09T08:00:01;37.90;35.50
11925;DHT22;6022;48.768;18.608;2023-07-09T08:02:30;37.90;36.30
11925;DHT22;6022;48.768;18.608;2023-07-09T08:04:59;37.90;36.40
11925;DHT22;6022;48.768;18.608;2023-07-09T08:07:27;38.50;37.70
11925;DHT22;6022;48.768;18.608;2023-07-09T08:09:54;38.30;37.80
11925;DHT22;6022;48.768;18.608;2023-07-09T08:12:21;38.50;38.20
11925;DHT22;6022;48.768;18.608;2023-07-09T08:14:48;38.40;35.00
11925;DHT22;6022;48.768;18.608;2023-07-09T08:17:15;38.50;34.60
11925;DHT22;6022;48.768;18.608;2023-07-09T08:19:48;38.20;34.90
11925;DHT22;6022;48.768;18.608;2023-07-09T08:22:16;38.10;33.90
11925;DHT22;6022;48.768;18.608;2023-07-09T08:24:43;38.00;35.20
11925;DHT22;6022;48.768;18.608;2023-07-09T08:27:10;38.40;36.60
11925;DHT22;6022;48.768;18.608;2023-07-09T08:29:37;38.30;35.00
11925;DHT22;6022;48.768;18.608;2023-07-09T08:32:06;38.20;34.00
11925;DHT22;6022;48.768;18.608;2023-07-09T08:34:34;38.20;35.60
11925;DHT22;6022;48.768;18.608;2023-07-09T08:37:02;38.10;34.50
11925;DHT22;6022;48.768;18.608;2023-07-09T08:39:30;38.30;35.40
11925;DHT22;6022;48.768;18.608;2023-07-09T08:42:01;38.00;35.90
11925;DHT22;6022;48.768;18.608;2023-07-09T08:50:10;38.00;36.50
11925;DHT22;6022;48.768;18.608;2023-07-09T08:52:45;37.70;35.10
11925;DHT22;6022;48.768;18.608;2023-07-09T08:55:28;38.00;34.90
11925;DHT22;6022;48.768;18.608;2023-07-09T08:58:24;38.00;35.60
11925;DHT22;6022;48.768;18.608;2023-07-09T09:00:56;38.20;36.50
11925;DHT22;6022;48.768;18.608;2023-07-09T09:03:51;38.30;36.50
11925;DHT22;6022;48.768;18.608;2023-07-09T09:06:29;38.10;35.90
11925;DHT22;6022;48.768;18.608;2023-07-09T09:09:02;38.10;36.30
11925;DHT22;6022;48.768;18.608;2023-07-09T09:14:42;38.30;35.80
11925;DHT22;6022;48.768;18.608;2023-07-09T09:17:14;38.10;36.70
11925;DHT22;6022;48.768;18.608;2023-07-09T09:19:47;38.30;36.60
11925;DHT22;6022;48.768;18.608;2023-07-09T09:22:38;38.50;37.20
11925;DHT22;6022;48.768;18.608;2023-07-09T09:25:28;38.50;37.90
11925;DHT22;6022;48.768;18.608;2023-07-09T09:27:59;38.50;38.60
11925;DHT22;6022;48.768;18.608;2023-07-09T09:30:31;38.40;34.50
11925;DHT22;6022;48.768;18.608;2023-07-09T09:33:06;38.30;35.20
11925;DHT22;6022;48.768;18.608;2023-07-09T09:35:43;37.70;34.90
11925;DHT22;6022;48.768;18.608;2023-07-09T09:38:15;37.50;36.40
11925;DHT22;6022;48.768;18.608;2023-07-09T09:41:04;37.50;37.60
11925;DHT22;6022;48.768;18.608;2023-07-09T09:43:37;37.80;35.90
11925;DHT22;6022;48.768;18.608;2023-07-09T09:46:09;37.60;35.60
11925;DHT22;6022;48.768;18.608;2023-07-09T09:48:49;37.70;36.20
11925;DHT22;6022;48.768;18.608;2023-07-09T09:51:18;36.00;36.50
11925;DHT22;6022;48.768;18.608;2023-07-09T09:53:52;35.70;37.20
11925;DHT22;6022;48.768;18.608;2023-07-09T09:56:30;35.60;38.30
11925;DHT22;6022;48.768;18.608;2023-07-09T09:59:01;35.80;38.10
11925;DHT22;6022;48.768;18.608;2023-07-09T10:01:31;36.50;34.80
11925;DHT22;6022;48.768;18.608;2023-07-09T10:04:03;36.50;36.00
11925;DHT22;6022;48.768;18.608;2023-07-09T10:06:38;36.30;36.10
11925;DHT22;6022;48.768;18.608;2023-07-09T10:09:50;36.20;35.60
11925;DHT22;6022;48.768;18.608;2023-07-09T10:26:11;36.00;39.50
11925;DHT22;6022;48.768;18.608;2023-07-09T10:29:18;36.70;37.80
11925;DHT22;6022;48.768;18.608;2023-07-09T10:41:31;36.00;35.20
11925;DHT22;6022;48.768;18.608;2023-07-09T10:44:10;37.00;33.00
11925;DHT22;6022;48.768;18.608;2023-07-09T10:46:54;36.90;33.90
11925;DHT22;6022;48.768;18.608;2023-07-09T10:49:36;35.60;34.30
11925;DHT22;6022;48.768;18.608;2023-07-09T10:52:57;36.10;33.50
11925;DHT22;6022;48.768;18.608;2023-07-09T10:58:35;36.30;32.20
11925;DHT22;6022;48.768;18.608;2023-07-09T11:01:29;36.00;33.60
11925;DHT22;6022;48.768;18.608;2023-07-09T11:04:27;36.30;36.20
11925;DHT22;6022;48.768;18.608;2023-07-09T11:06:58;35.80;34.90
11925;DHT22;6022;48.768;18.608;2023-07-09T11:09:30;35.50;33.10
11925;DHT22;6022;48.768;18.608;2023-07-09T11:12:09;35.50;33.70
11925;DHT22;6022;48.768;18.608;2023-07-09T11:18:29;35.60;33.80
11925;DHT22;6022;48.768;18.608;2023-07-09T11:21:12;34.50;33.00
11925;DHT22;6022;48.768;18.608;2023-07-09T11:23:47;33.90;33.50
11925;DHT22;6022;48.768;18.608;2023-07-09T11:26:26;34.20;35.30
11925;DHT22;6022;48.768;18.608;2023-07-09T11:31:45;34.40;35.60
11925;DHT22;6022;48.768;18.608;2023-07-09T11:34:21;34.10;33.10
11925;DHT22;6022;48.768;18.608;2023-07-09T11:37:11;33.70;33.90
11925;DHT22;6022;48.768;18.608;2023-07-09T11:39:48;33.50;33.90
11925;DHT22;6022;48.768;18.608;2023-07-09T11:42:34;33.60;35.90
11925;DHT22;6022;48.768;18.608;2023-07-09T11:45:28;34.60;37.00
11925;DHT22;6022;48.768;18.608;2023-07-09T11:50:53;35.70;36.10
11925;DHT22;6022;48.768;18.608;2023-07-09T11:53:47;36.20;35.10
11925;DHT22;6022;48.768;18.608;2023-07-09T11:56:27;36.50;35.70
11925;DHT22;6022;48.768;18.608;2023-07-09T11:58:58;36.40;32.40
11925;DHT22;6022;48.768;18.608;2023-07-09T12:01:37;36.10;32.10
11925;DHT22;6022;48.768;18.608;2023-07-09T12:04:19;36.20;34.90
11925;DHT22;6022;48.768;18.608;2023-07-09T12:06:52;36.20;36.00
11925;DHT22;6022;48.768;18.608;2023-07-09T12:09:32;35.10;35.20
11925;DHT22;6022;48.768;18.608;2023-07-09T12:12:26;35.00;36.60
11925;DHT22;6022;48.768;18.608;2023-07-09T12:14:57;34.20;35.70
11925;DHT22;6022;48.768;18.608;2023-07-09T12:17:27;34.40;37.00
11925;DHT22;6022;48.768;18.608;2023-07-09T12:20:04;34.00;35.00
11925;DHT22;6022;48.768;18.608;2023-07-09T12:22:41;34.00;35.60
11925;DHT22;6022;48.768;18.608;2023-07-09T12:25:23;34.70;36.50
11925;DHT22;6022;48.768;18.608;2023-07-09T12:27:51;35.30;38.80
11925;DHT22;6022;48.768;18.608;2023-07-09T12:30:20;35.70;35.90
11925;DHT22;6022;48.768;18.608;2023-07-09T12:32:50;35.90;34.70
11925;DHT22;6022;48.768;18.608;2023-07-09T12:35:25;36.00;34.80
11925;DHT22;6022;48.768;18.608;2023-07-09T12:37:59;35.40;33.20
11925;DHT22;6022;48.768;18.608;2023-07-09T12:40:33;35.00;35.30
11925;DHT22;6022;48.768;18.608;2023-07-09T12:43:02;35.20;34.70
11925;DHT22;6022;48.768;18.608;2023-07-09T12:45:30;35.10;35.00
11925;DHT22;6022;48.768;18.608;2023-07-09T12:47:59;35.00;36.10
11925;DHT22;6022;48.768;18.608;2023-07-09T12:50:32;34.80;34.60
11925;DHT22;6022;48.768;18.608;2023-07-09T12:53:11;34.50;35.00
11925;DHT22;6022;48.768;18.608;2023-07-09T12:55:44;34.60;36.30
11925;DHT22;6022;48.768;18.608;2023-07-09T12:58:26;34.60;34.90
11925;DHT22;6022;48.768;18.608;2023-07-09T13:00:57;34.60;35.70
11925;DHT22;6022;48.768;18.608;2023-07-09T13:03:30;34.40;36.30
11925;DHT22;6022;48.768;18.608;2023-07-09T13:06:28;34.60;35.20
11925;DHT22;6022;48.768;18.608;2023-07-09T13:09:03;34.80;34.40
11925;DHT22;6022;48.768;18.608;2023-07-09T13:11:39;34.30;35.10
11925;DHT22;6022;48.768;18.608;2023-07-09T13:14:18;34.20;33.30
11925;DHT22;6022;48.768;18.608;2023-07-09T13:16:48;34.00;34.10
11925;DHT22;6022;48.768;18.608;2023-07-09T13:19:18;33.60;34.70
11925;DHT22;6022;48.768;18.608;2023-07-09T13:21:46;33.80;34.20
11925;DHT22;6022;48.768;18.608;2023-07-09T13:24:23;33.80;35.90
11925;DHT22;6022;48.768;18.608;2023-07-09T13:26:56;33.60;36.10
11925;DHT22;6022;48.768;18.608;2023-07-09T13:29:34;33.50;37.50
11925;DHT22;6022;48.768;18.608;2023-07-09T13:32:02;33.10;35.40
11925;DHT22;6022;48.768;18.608;2023-07-09T13:34:33;33.10;36.40
11925;DHT22;6022;48.768;18.608;2023-07-09T13:37:02;33.40;35.20
11925;DHT22;6022;48.768;18.608;2023-07-09T13:39:33;33.50;35.00
11925;DHT22;6022;48.768;18.608;2023-07-09T13:42:01;33.50;34.60
11925;DHT22;6022;48.768;18.608;2023-07-09T13:44:30;33.50;35.60
11925;DHT22;6022;48.768;18.608;2023-07-09T13:46:58;33.60;34.10
11925;DHT22;6022;48.768;18.608;2023-07-09T13:49:26;33.60;35.30
11925;DHT22;6022;48.768;18.608;2023-07-09T13:51:58;33.50;36.90
11925;DHT22;6022;48.768;18.608;2023-07-09T13:54:32;33.70;35.20
11925;DHT22;6022;48.768;18.608;2023-07-09T13:57:11;33.50;33.70
11925;DHT22;6022;48.768;18.608;2023-07-09T13:59:53;33.40;35.60
11925;DHT22;6022;48.768;18.608;2023-07-09T14:05:03;33.50;36.30
11925;DHT22;6022;48.768;18.608;2023-07-09T14:07:37;33.40;36.80
11925;DHT22;6022;48.768;18.608;2023-07-09T14:10:20;33.70;36.60
11925;DHT22;6022;48.768;18.608;2023-07-09T14:12:47;33.50;35.50
11925;DHT22;6022;48.768;18.608;2023-07-09T14:15:20;33.60;34.70
11925;DHT22;6022;48.768;18.608;2023-07-09T14:17:52;33.50;35.60
11925;DHT22;6022;48.768;18.608;2023-07-09T14:20:22;33.30;35.80
11925;DHT22;6022;48.768;18.608;2023-07-09T14:22:50;33.30;36.60
11925;DHT22;6022;48.768;18.608;2023-07-09T14:25:20;33.40;35.30
11925;DHT22;6022;48.768;18.608;2023-07-09T14:27:51;33.00;35.70
11925;DHT22;6022;48.768;18.608;2023-07-09T14:30:24;33.10;35.70
11925;DHT22;6022;48.768;18.608;2023-07-09T14:32:55;32.80;34.80
11925;DHT22;6022;48.768;18.608;2023-07-09T14:35:27;32.70;34.30
11925;DHT22;6022;48.768;18.608;2023-07-09T14:37:56;32.80;34.80
11925;DHT22;6022;48.768;18.608;2023-07-09T14:40:26;32.80;33.60
11925;DHT22;6022;48.768;18.608;2023-07-09T14:42:53;32.90;34.40
11925;DHT22;6022;48.768;18.608;2023-07-09T14:45:27;33.10;33.30
11925;DHT22;6022;48.768;18.608;2023-07-09T14:48:19;32.70;32.80
11925;DHT22;6022;48.768;18.608;2023-07-09T14:50:49;32.80;34.10
11925;DHT22;6022;48.768;18.608;2023-07-09T14:53:28;32.80;34.20
11925;DHT22;6022;48.768;18.608;2023-07-09T14:55:55;32.50;34.90
11925;DHT22;6022;48.768;18.608;2023-07-09T14:58:27;32.70;34.50
11925;DHT22;6022;48.768;18.608;2023-07-09T15:00:58;32.50;35.10
11925;DHT22;6022;48.768;18.608;2023-07-09T15:03:26;32.30;34.60
11925;DHT22;6022;48.768;18.608;2023-07-09T15:05:54;32.30;34.80
11925;DHT22;6022;48.768;18.608;2023-07-09T15:08:23;32.30;35.50
11925;DHT22;6022;48.768;18.608;2023-07-09T15:10:53;32.20;34.80
11925;DHT22;6022;48.768;18.608;2023-07-09T15:13:36;32.10;35.80
11925;DHT22;6022;48.768;18.608;2023-07-09T15:16:06;31.90;36.10
11925;DHT22;6022;48.768;18.608;2023-07-09T15:18:39;31.60;34.80
11925;DHT22;6022;48.768;18.608;2023-07-09T15:21:09;31.50;35.60
11925;DHT22;6022;48.768;18.608;2023-07-09T15:23:45;31.70;36.60
11925;DHT22;6022;48.768;18.608;2023-07-09T15:26:15;31.70;35.90
11925;DHT22;6022;48.768;18.608;2023-07-09T15:28:43;31.70;37.10
11925;DHT22;6022;48.768;18.608;2023-07-09T15:31:15;31.70;36.50
11925;DHT22;6022;48.768;18.608;2023-07-09T15:33:45;31.80;36.20
11925;DHT22;6022;48.768;18.608;2023-07-09T15:36:27;31.70;35.80
11925;DHT22;6022;48.768;18.608;2023-07-09T15:38:57;31.60;35.60
11925;DHT22;6022;48.768;18.608;2023-07-09T15:41:29;31.70;34.90
11925;DHT22;6022;48.768;18.608;2023-07-09T15:43:58;31.70;35.30
11925;DHT22;6022;48.768;18.608;2023-07-09T15:46:26;31.60;36.00
11925;DHT22;6022;48.768;18.608;2023-07-09T15:48:54;31.70;35.70
11925;DHT22;6022;48.768;18.608;2023-07-09T15:51:22;31.70;36.30
11925;DHT22;6022;48.768;18.608;2023-07-09T15:53:52;31.70;35.90
11925;DHT22;6022;48.768;18.608;2023-07-09T15:56:29;31.80;35.90
11925;DHT22;6022;48.768;18.608;2023-07-09T15:59:02;31.40;34.40
11925;DHT22;6022;48.768;18.608;2023-07-09T16:01:34;31.60;35.40
11925;DHT22;6022;48.768;18.608;2023-07-09T16:04:02;31.50;34.90
11925;DHT22;6022;48.768;18.608;2023-07-09T16:06:35;31.60;35.60
11925;DHT22;6022;48.768;18.608;2023-07-09T16:09:06;31.50;35.60
11925;DHT22;6022;48.768;18.608;2023-07-09T16:11:35;31.10;50.30
11925;DHT22;6022;48.768;18.608;2023-07-09T16:14:23;30.90;51.40
11925;DHT22;6022;48.768;18.608;2023-07-09T16:16:56;30.30;55.30
11925;DHT22;6022;48.768;18.608;2023-07-09T16:19:29;29.90;56.50
11925;DHT22;6022;48.768;18.608;2023-07-09T16:22:03;29.40;59.10
11925;DHT22;6022;48.768;18.608;2023-07-09T16:24:33;29.20;60.10
11925;DHT22;6022;48.768;18.608;2023-07-09T16:27:05;28.90;62.30
11925;DHT22;6022;48.768;18.608;2023-07-09T16:29:35;28.80;64.00
11925;DHT22;6022;48.768;18.608;2023-07-09T16:32:03;28.50;63.10
11925;DHT22;6022;48.768;18.608;2023-07-09T16:34:31;28.60;64.40
11925;DHT22;6022;48.768;18.608;2023-07-09T16:36:59;28.40;64.30
11925;DHT22;6022;48.768;18.608;2023-07-09T16:39:28;28.40;62.80
11925;DHT22;6022;48.768;18.608;2023-07-09T16:42:08;28.50;61.80
11925;DHT22;6022;48.768;18.608;2023-07-09T16:44:38;28.40;64.10
11925;DHT22;6022;48.768;18.608;2023-07-09T16:47:17;28.40;63.40
11925;DHT22;6022;48.768;18.608;2023-07-09T16:49:46;28.40;63.10
11925;DHT22;6022;48.768;18.608;2023-07-09T16:52:19;28.30;61.50
11925;DHT22;6022;48.768;18.608;2023-07-09T16:54:53;28.30;64.50